createdAt,value
2016-06-15T00:00:05.659Z,988.09
2016-06-15T00:01:05.678Z,988.12
2016-06-15T00:02:05.697Z,988.06
2016-06-15T00:03:05.731Z,988.09
2016-06-15T00:04:05.750Z,988.09
2016-06-15T00:05:05.784Z,988.11
2016-06-15T00:06:05.803Z,988.14
2016-06-15T00:07:05.837Z,988.1
2016-06-15T00:08:05.856Z,988.1
2016-06-15T00:09:05.874Z,988.08
2016-06-15T00:10:05.910Z,988.08
2016-06-15T00:11:05.927Z,988.08
2016-06-15T00:12:05.962Z,988.11
2016-06-15T00:13:05.980Z,988.04
2016-06-15T00:14:06.015Z,988.02
2016-06-15T00:15:06.050Z,988.06
2016-06-15T00:16:06.068Z,988.01
2016-06-15T00:17:06.087Z,987.99
2016-06-15T00:18:06.121Z,987.95
2016-06-15T00:19:06.140Z,987.96
2016-06-15T00:20:06.174Z,987.95
2016-06-15T00:21:06.194Z,987.93
2016-06-15T00:22:06.227Z,987.94
2016-06-15T00:23:06.246Z,987.92
2016-06-15T00:24:06.280Z,987.94
2016-06-15T00:25:06.299Z,987.93
2016-06-15T00:26:06.333Z,987.94
2016-06-15T00:27:06.462Z,987.92
2016-06-15T00:28:06.464Z,987.91
2016-06-15T00:29:06.514Z,987.94
2016-06-15T00:30:06.423Z,987.97
2016-06-15T00:31:06.489Z,987.94
2016-06-15T00:32:06.539Z,987.95
2016-06-15T00:33:06.511Z,987.95
2016-06-15T00:34:06.529Z,987.94
2016-06-15T00:35:06.611Z,987.93
2016-06-15T00:36:06.630Z,987.93
2016-06-15T00:37:06.617Z,987.89
2016-06-15T00:38:06.729Z,987.9
2016-06-15T00:39:06.733Z,987.9
2016-06-15T00:40:06.752Z,987.87
2016-06-15T00:41:06.800Z,987.86
2016-06-15T00:42:06.773Z,987.88
2016-06-15T00:43:06.807Z,987.87
2016-06-15T00:44:06.810Z,987.91
2016-06-15T00:45:06.829Z,987.9
2016-06-15T00:46:06.848Z,987.91
2016-06-15T00:47:06.866Z,987.93
2016-06-15T00:48:06.901Z,987.93
2016-06-15T00:49:06.919Z,987.93
2016-06-15T00:50:07.235Z,987.86
2016-06-15T00:51:06.973Z,987.9
2016-06-15T00:52:07.006Z,987.88
2016-06-15T00:53:07.026Z,987.88
2016-06-15T00:54:07.060Z,987.92
2016-06-15T00:55:07.094Z,987.92
2016-06-15T00:56:07.113Z,987.88
2016-06-15T00:57:07.132Z,987.9
2016-06-15T00:58:07.181Z,987.88
2016-06-15T00:59:07.252Z,987.9
2016-06-15T01:00:07.307Z,987.9
2016-06-15T01:01:07.377Z,987.89
2016-06-15T01:02:07.432Z,987.88
2016-06-15T01:03:07.484Z,987.87
2016-06-15T01:04:07.516Z,987.87
2016-06-15T01:05:08.204Z,987.85
2016-06-15T01:06:07.595Z,987.85
2016-06-15T01:07:07.642Z,987.84
2016-06-15T01:08:07.667Z,987.9
2016-06-15T01:09:07.691Z,987.84
2016-06-15T01:10:07.730Z,987.86
2016-06-15T01:11:07.754Z,987.86
2016-06-15T01:12:07.792Z,987.89
2016-06-15T01:13:07.814Z,987.89
2016-06-15T01:14:07.849Z,987.89
2016-06-15T01:15:07.870Z,987.89
2016-06-15T01:16:07.906Z,987.91
2016-06-15T01:17:07.926Z,987.89
2016-06-15T01:18:07.962Z,987.88
2016-06-15T01:19:07.981Z,987.9
2016-06-15T01:20:08.000Z,987.9
2016-06-15T01:21:08.036Z,987.9
2016-06-15T01:22:08.118Z,987.93
2016-06-15T01:23:08.089Z,987.94
2016-06-15T01:24:08.108Z,987.9
2016-06-15T01:25:08.142Z,987.96
2016-06-15T01:26:08.161Z,987.95
2016-06-15T01:27:08.196Z,987.98
2016-06-15T01:28:08.214Z,987.96
2016-06-15T01:29:08.249Z,987.95
2016-06-15T01:30:08.267Z,988.01
2016-06-15T01:31:08.286Z,987.96
2016-06-15T01:32:08.320Z,988
2016-06-15T01:33:08.339Z,988
2016-06-15T01:34:08.372Z,988
2016-06-15T01:35:08.751Z,988.01
2016-06-15T01:36:08.425Z,987.98
2016-06-15T01:37:08.445Z,987.97
2016-06-15T01:38:08.479Z,987.99
2016-06-15T01:39:08.498Z,987.99
2016-06-15T01:40:08.516Z,988
2016-06-15T01:41:08.551Z,987.96
2016-06-15T01:42:08.569Z,987.96
2016-06-15T01:43:08.604Z,987.96
2016-06-15T01:44:08.623Z,988.02
2016-06-15T01:45:08.656Z,987.97
2016-06-15T01:46:08.675Z,987.96
2016-06-15T01:47:08.709Z,987.97
2016-06-15T01:48:08.729Z,987.96
2016-06-15T01:49:08.748Z,988
2016-06-15T01:50:08.782Z,988.02
2016-06-15T01:51:08.800Z,988.03
2016-06-15T01:52:08.897Z,988.03
2016-06-15T01:53:08.916Z,988.02
2016-06-15T01:54:08.919Z,988.02
2016-06-15T01:55:08.937Z,988.03
2016-06-15T01:56:09.034Z,988.02
2016-06-15T01:57:09.053Z,988.04
2016-06-15T01:58:09.056Z,988.03
2016-06-15T01:59:09.091Z,988
2016-06-15T02:00:09.063Z,988.03
2016-06-15T02:01:09.066Z,987.96
2016-06-15T02:02:09.084Z,987.94
2016-06-15T02:03:09.119Z,987.95
2016-06-15T02:04:09.137Z,987.98
2016-06-15T02:05:09.172Z,987.94
2016-06-15T02:06:09.190Z,987.91
2016-06-15T02:07:09.209Z,987.88
2016-06-15T02:08:09.243Z,987.91
2016-06-15T02:09:09.262Z,987.92
2016-06-15T02:10:09.296Z,987.95
2016-06-15T02:11:09.316Z,987.94
2016-06-15T02:12:09.350Z,987.92
2016-06-15T02:13:09.368Z,987.93
2016-06-15T02:14:09.403Z,987.96
2016-06-15T02:15:09.421Z,987.94
2016-06-15T02:16:09.440Z,987.92
2016-06-15T02:17:09.474Z,987.92
2016-06-15T02:18:09.493Z,987.91
2016-06-15T02:19:09.527Z,987.89
2016-06-15T02:20:09.546Z,987.9
2016-06-15T02:21:09.564Z,987.94
2016-06-15T02:22:09.600Z,987.9
2016-06-15T02:23:09.617Z,987.89
2016-06-15T02:24:09.652Z,987.87
2016-06-15T02:25:09.670Z,987.89
2016-06-15T02:26:09.704Z,987.88
2016-06-15T02:27:09.723Z,987.87
2016-06-15T02:28:09.743Z,987.87
2016-06-15T02:29:09.776Z,987.85
2016-06-15T02:30:09.795Z,987.84
2016-06-15T02:31:09.829Z,987.87
2016-06-15T02:32:09.848Z,987.85
2016-06-15T02:33:09.883Z,987.85
2016-06-15T02:34:09.901Z,987.89
2016-06-15T02:35:09.935Z,987.89
2016-06-15T02:36:10.329Z,987.92
2016-06-15T02:37:09.973Z,987.98
2016-06-15T02:38:10.007Z,988.02
2016-06-15T02:39:10.026Z,987.98
2016-06-15T02:40:10.060Z,988.02
2016-06-15T02:41:10.079Z,988.01
2016-06-15T02:42:10.097Z,988.02
2016-06-15T02:43:10.132Z,988.05
2016-06-15T02:44:10.151Z,988.04
2016-06-15T02:45:10.185Z,988.06
2016-06-15T02:46:10.204Z,988.09
2016-06-15T02:47:10.238Z,988.07
2016-06-15T02:48:10.257Z,988.07
2016-06-15T02:49:10.275Z,988.06
2016-06-15T02:50:10.311Z,988.05
2016-06-15T02:51:10.328Z,988.02
2016-06-15T02:52:10.363Z,988.03
2016-06-15T02:53:10.381Z,988.04
2016-06-15T02:54:10.416Z,988.05
2016-06-15T02:55:10.435Z,988.03
2016-06-15T02:56:10.454Z,988.02
2016-06-15T02:57:10.487Z,988.03
2016-06-15T02:58:10.647Z,988
2016-06-15T02:59:10.633Z,988
2016-06-15T03:00:10.653Z,987.97
2016-06-15T03:01:10.687Z,987.95
2016-06-15T03:02:10.691Z,987.95
2016-06-15T03:03:10.693Z,987.94
2016-06-15T03:04:10.665Z,987.92
2016-06-15T03:05:10.715Z,987.9
2016-06-15T03:06:10.719Z,987.91
2016-06-15T03:07:10.738Z,987.91
2016-06-15T03:08:10.866Z,987.9
2016-06-15T03:09:10.869Z,987.86
2016-06-15T03:10:10.808Z,987.88
2016-06-15T03:11:10.937Z,987.88
2016-06-15T03:12:10.940Z,987.85
2016-06-15T03:13:10.974Z,987.86
2016-06-15T03:14:10.993Z,987.87
2016-06-15T03:15:10.996Z,987.87
2016-06-15T03:16:10.999Z,987.87
2016-06-15T03:17:11.003Z,987.84
2016-06-15T03:18:11.021Z,987.81
2016-06-15T03:19:11.039Z,987.77
2016-06-15T03:20:11.058Z,987.78
2016-06-15T03:21:11.092Z,987.72
2016-06-15T03:22:11.111Z,987.69
2016-06-15T03:23:11.146Z,987.76
2016-06-15T03:24:11.164Z,987.69
2016-06-15T03:25:11.230Z,987.72
2016-06-15T03:26:11.217Z,987.7
2016-06-15T03:27:11.236Z,987.68
2016-06-15T03:28:11.364Z,987.7
2016-06-15T03:29:11.305Z,987.72
2016-06-15T03:30:11.323Z,987.7
2016-06-15T03:31:11.342Z,987.62
2016-06-15T03:32:11.376Z,987.64
2016-06-15T03:33:11.395Z,987.62
2016-06-15T03:34:11.414Z,987.64
2016-06-15T03:35:11.448Z,987.71
2016-06-15T03:36:11.467Z,987.73
2016-06-15T03:37:11.501Z,987.74
2016-06-15T03:38:11.520Z,987.76
2016-06-15T03:39:11.539Z,987.78
2016-06-15T03:40:11.573Z,987.8
2016-06-15T03:41:11.592Z,987.77
2016-06-15T03:42:11.626Z,987.76
2016-06-15T03:43:11.644Z,987.75
2016-06-15T03:44:11.663Z,987.8
2016-06-15T03:45:11.698Z,987.8
2016-06-15T03:46:11.716Z,987.77
2016-06-15T03:47:11.751Z,987.79
2016-06-15T03:48:11.769Z,987.81
2016-06-15T03:49:11.804Z,987.85
2016-06-15T03:50:11.822Z,987.86
2016-06-15T03:51:11.888Z,987.87
2016-06-15T03:52:11.875Z,987.88
2016-06-15T03:53:11.894Z,987.86
2016-06-15T03:54:11.927Z,987.86
2016-06-15T03:55:11.947Z,987.87
2016-06-15T03:56:11.966Z,987.89
2016-06-15T03:57:12.000Z,987.88
2016-06-15T03:58:12.020Z,987.89
2016-06-15T03:59:12.053Z,987.87
2016-06-15T04:00:12.071Z,987.89
2016-06-15T04:01:12.107Z,987.9
2016-06-15T04:02:12.124Z,987.92
2016-06-15T04:03:12.144Z,987.91
2016-06-15T04:04:12.177Z,987.84
2016-06-15T04:05:12.197Z,987.86
2016-06-15T04:06:12.278Z,987.8
2016-06-15T04:07:12.250Z,987.8
2016-06-15T04:08:12.268Z,987.84
2016-06-15T04:09:12.303Z,987.82
2016-06-15T04:10:12.321Z,987.86
2016-06-15T04:11:12.355Z,987.89
2016-06-15T04:12:12.374Z,987.87
2016-06-15T04:13:12.393Z,987.89
2016-06-15T04:14:12.427Z,987.88
2016-06-15T04:15:12.447Z,987.89
2016-06-15T04:16:12.480Z,987.87
2016-06-15T04:17:12.499Z,987.85
2016-06-15T04:18:12.518Z,987.86
2016-06-15T04:19:12.552Z,987.86
2016-06-15T04:20:12.571Z,987.89
2016-06-15T04:21:12.605Z,987.88
2016-06-15T04:22:12.639Z,987.87
2016-06-15T04:23:12.658Z,987.92
2016-06-15T04:24:12.678Z,987.91
2016-06-15T04:25:12.773Z,987.96
2016-06-15T04:26:12.731Z,988.02
2016-06-15T04:27:12.748Z,988.02
2016-06-15T04:28:12.783Z,988
2016-06-15T04:29:12.802Z,988.02
2016-06-15T04:30:12.821Z,988.05
2016-06-15T04:31:12.855Z,988.03
2016-06-15T04:32:12.874Z,988.02
2016-06-15T04:33:12.908Z,988
2016-06-15T04:34:12.926Z,988.02
2016-06-15T04:35:12.945Z,988.05
2016-06-15T04:36:12.979Z,988.03
2016-06-15T04:37:12.998Z,988.03
2016-06-15T04:38:13.032Z,988.03
2016-06-15T04:39:13.051Z,988.05
2016-06-15T04:40:13.086Z,988.02
2016-06-15T04:41:13.104Z,988.06
2016-06-15T04:42:13.122Z,988.07
2016-06-15T04:43:13.157Z,988.1
2016-06-15T04:44:13.175Z,988.13
2016-06-15T04:45:13.209Z,988.15
2016-06-15T04:46:13.229Z,988.16
2016-06-15T04:47:13.262Z,988.17
2016-06-15T04:48:13.282Z,988.22
2016-06-15T04:49:13.301Z,988.22
2016-06-15T04:50:13.335Z,988.23
2016-06-15T04:51:13.353Z,988.23
2016-06-15T04:52:13.372Z,988.23
2016-06-15T04:53:13.406Z,988.25
2016-06-15T04:54:13.425Z,988.24
2016-06-15T04:55:13.459Z,988.27
2016-06-15T04:56:13.478Z,988.26
2016-06-15T04:57:13.497Z,988.27
2016-06-15T04:58:13.531Z,988.26
2016-06-15T04:59:13.566Z,988.26
2016-06-15T05:00:13.584Z,988.24
2016-06-15T05:01:13.603Z,988.26
2016-06-15T05:02:13.637Z,988.27
2016-06-15T05:03:13.656Z,988.28
2016-06-15T05:04:13.675Z,988.24
2016-06-15T05:05:13.709Z,988.29
2016-06-15T05:06:13.728Z,988.27
2016-06-15T05:07:13.762Z,988.24
2016-06-15T05:08:13.781Z,988.23
2016-06-15T05:09:13.799Z,988.25
2016-06-15T05:10:13.834Z,988.24
2016-06-15T05:11:13.852Z,988.24
2016-06-15T05:12:13.887Z,988.25
2016-06-15T05:13:13.906Z,988.24
2016-06-15T05:14:13.940Z,988.22
2016-06-15T05:15:13.959Z,988.26
2016-06-15T05:16:13.977Z,988.27
2016-06-15T05:17:14.012Z,988.28
2016-06-15T05:18:14.030Z,988.27
2016-06-15T05:19:14.065Z,988.27
2016-06-15T05:20:14.083Z,988.27
2016-06-15T05:21:14.118Z,988.29
2016-06-15T05:22:14.183Z,988.28
2016-06-15T05:23:14.156Z,988.31
2016-06-15T05:24:14.189Z,988.33
2016-06-15T05:25:14.208Z,988.34
2016-06-15T05:26:14.226Z,988.37
2016-06-15T05:27:14.261Z,988.41
2016-06-15T05:28:14.280Z,988.42
2016-06-15T05:29:14.314Z,988.41
2016-06-15T05:30:14.333Z,988.42
2016-06-15T05:31:14.351Z,988.44
2016-06-15T05:32:14.386Z,988.44
2016-06-15T05:33:14.404Z,988.45
2016-06-15T05:34:14.439Z,988.46
2016-06-15T05:35:14.458Z,988.45
2016-06-15T05:36:14.476Z,988.48
2016-06-15T05:37:14.510Z,988.45
2016-06-15T05:38:14.529Z,988.47
2016-06-15T05:39:14.563Z,988.47
2016-06-15T05:40:14.582Z,988.45
2016-06-15T05:41:14.617Z,988.47
2016-06-15T05:42:14.635Z,988.5
2016-06-15T05:43:14.653Z,988.47
2016-06-15T05:44:14.688Z,988.52
2016-06-15T05:45:14.707Z,988.49
2016-06-15T05:46:14.727Z,988.51
2016-06-15T05:47:14.760Z,988.49
2016-06-15T05:48:14.779Z,988.51
2016-06-15T05:49:14.813Z,988.48
2016-06-15T05:50:14.831Z,988.44
2016-06-15T05:51:14.866Z,988.42
2016-06-15T05:52:14.885Z,988.46
2016-06-15T05:53:14.903Z,988.46
2016-06-15T05:54:14.938Z,988.46
2016-06-15T05:55:14.956Z,988.54
2016-06-15T05:56:14.991Z,988.49
2016-06-15T05:57:15.010Z,988.48
2016-06-15T05:58:15.028Z,988.54
2016-06-15T05:59:15.062Z,988.53
2016-06-15T06:00:15.081Z,988.54
2016-06-15T06:01:15.115Z,988.55
2016-06-15T06:02:15.135Z,988.57
2016-06-15T06:03:15.168Z,988.56
2016-06-15T06:04:15.188Z,988.61
2016-06-15T06:05:15.205Z,988.56
2016-06-15T06:06:15.427Z,988.58
2016-06-15T06:07:15.259Z,988.58
2016-06-15T06:08:15.294Z,988.59
2016-06-15T06:09:15.311Z,988.63
2016-06-15T06:10:15.331Z,988.62
2016-06-15T06:11:15.365Z,988.65
2016-06-15T06:12:15.399Z,988.66
2016-06-15T06:13:15.419Z,988.62
2016-06-15T06:14:15.452Z,988.67
2016-06-15T06:15:15.472Z,988.68
2016-06-15T06:16:15.489Z,988.67
2016-06-15T06:17:15.509Z,988.67
2016-06-15T06:18:15.542Z,988.66
2016-06-15T06:19:15.578Z,988.65
2016-06-15T06:20:15.596Z,988.66
2016-06-15T06:21:15.615Z,988.66
2016-06-15T06:22:15.696Z,988.65
2016-06-15T06:23:15.668Z,988.63
2016-06-15T06:24:15.686Z,988.69
2016-06-15T06:25:15.721Z,988.64
2016-06-15T06:26:15.739Z,988.65
2016-06-15T06:27:15.773Z,988.66
2016-06-15T06:28:15.792Z,988.69
2016-06-15T06:29:15.812Z,988.67
2016-06-15T06:30:15.845Z,988.68
2016-06-15T06:31:15.865Z,988.69
2016-06-15T06:32:15.898Z,988.7
2016-06-15T06:33:15.917Z,988.7
2016-06-15T06:34:15.936Z,988.7
2016-06-15T06:35:15.970Z,988.69
2016-06-15T06:36:16.270Z,988.69
2016-06-15T06:37:16.022Z,988.7
2016-06-15T06:38:16.042Z,988.74
2016-06-15T06:39:16.060Z,988.75
2016-06-15T06:40:16.095Z,988.76
2016-06-15T06:41:16.113Z,988.74
2016-06-15T06:42:16.148Z,988.74
2016-06-15T06:43:16.166Z,988.73
2016-06-15T06:44:16.200Z,988.73
2016-06-15T06:45:16.220Z,988.74
2016-06-15T06:46:16.253Z,988.72
2016-06-15T06:47:16.273Z,988.78
2016-06-15T06:48:16.306Z,988.8
2016-06-15T06:49:16.326Z,988.75
2016-06-15T06:50:16.360Z,988.81
2016-06-15T06:51:16.379Z,988.84
2016-06-15T06:52:16.397Z,988.84
2016-06-15T06:53:16.416Z,988.8
2016-06-15T06:54:16.450Z,988.82
2016-06-15T06:55:16.470Z,988.87
2016-06-15T06:56:16.503Z,988.87
2016-06-15T06:57:16.663Z,988.86
2016-06-15T06:58:16.556Z,988.84
2016-06-15T06:59:16.576Z,988.83
2016-06-15T07:00:16.610Z,988.82
2016-06-15T07:01:16.832Z,988.82
2016-06-15T07:02:16.647Z,988.82
2016-06-15T07:03:16.681Z,988.85
2016-06-15T07:04:16.700Z,988.85
2016-06-15T07:05:16.734Z,988.88
2016-06-15T07:06:17.393Z,988.85
2016-06-15T07:07:16.771Z,988.83
2016-06-15T07:08:16.806Z,988.86
2016-06-15T07:09:16.824Z,988.85
2016-06-15T07:10:16.859Z,988.85
2016-06-15T07:11:16.878Z,988.85
2016-06-15T07:12:16.911Z,988.88
2016-06-15T07:13:16.931Z,988.88
2016-06-15T07:14:16.964Z,988.88
2016-06-15T07:15:16.984Z,988.94
2016-06-15T07:16:17.018Z,988.87
2016-06-15T07:17:17.037Z,988.9
2016-06-15T07:18:17.055Z,988.9
2016-06-15T07:19:17.090Z,988.88
2016-06-15T07:20:17.108Z,988.88
2016-06-15T07:21:17.144Z,988.88
2016-06-15T07:22:17.521Z,988.86
2016-06-15T07:23:17.195Z,988.91
2016-06-15T07:24:17.214Z,988.94
2016-06-15T07:25:17.249Z,988.93
2016-06-15T07:26:17.267Z,988.93
2016-06-15T07:27:17.302Z,988.94
2016-06-15T07:28:17.321Z,988.93
2016-06-15T07:29:17.355Z,988.95
2016-06-15T07:30:17.374Z,988.95
2016-06-15T07:31:17.392Z,988.94
2016-06-15T07:32:17.427Z,988.97
2016-06-15T07:33:17.445Z,989
2016-06-15T07:34:17.479Z,989
2016-06-15T07:35:17.514Z,988.98
2016-06-15T07:36:17.532Z,989
2016-06-15T07:37:17.551Z,989.04
2016-06-15T07:38:17.585Z,989
2016-06-15T07:39:17.604Z,988.99
2016-06-15T07:40:17.639Z,988.99
2016-06-15T07:41:17.658Z,989.04
2016-06-15T07:42:17.675Z,989.02
2016-06-15T07:43:17.711Z,989.04
2016-06-15T07:44:17.729Z,989.04
2016-06-15T07:45:17.763Z,989.03
2016-06-15T07:46:17.798Z,989.04
2016-06-15T07:47:17.816Z,989.08
2016-06-15T07:48:17.835Z,989.05
2016-06-15T07:49:17.869Z,989.09
2016-06-15T07:50:17.888Z,989.11
2016-06-15T07:51:18.172Z,989.12
2016-06-15T07:52:17.942Z,989.1
2016-06-15T07:53:17.975Z,989.12
2016-06-15T07:54:17.994Z,989.11
2016-06-15T07:55:18.013Z,989.11
2016-06-15T07:56:18.047Z,989.15
2016-06-15T07:57:18.082Z,989.16
2016-06-15T07:58:18.099Z,989.16
2016-06-15T07:59:18.119Z,989.18
2016-06-15T08:00:18.153Z,989.17
2016-06-15T08:01:18.187Z,989.15
2016-06-15T08:02:18.206Z,989.22
2016-06-15T08:03:18.225Z,989.17
2016-06-15T08:04:18.259Z,989.21
2016-06-15T08:05:18.278Z,989.2
2016-06-15T08:06:18.938Z,989.18
2016-06-15T08:07:18.596Z,989.17
2016-06-15T08:08:18.475Z,989.13
2016-06-15T08:09:18.478Z,989.15
2016-06-15T08:10:18.511Z,989.15
2016-06-15T08:11:18.515Z,989.14
2016-06-15T08:12:18.533Z,989.14
2016-06-15T08:13:18.537Z,989.12
2016-06-15T08:14:18.540Z,989.12
2016-06-15T08:15:18.574Z,989.15
2016-06-15T08:16:18.688Z,989.12
2016-06-15T08:17:18.721Z,989.17
2016-06-15T08:18:18.708Z,989.11
2016-06-15T08:19:18.742Z,989.15
2016-06-15T08:20:18.761Z,989.13
2016-06-15T08:21:18.765Z,989.14
2016-06-15T08:22:18.814Z,989.18
2016-06-15T08:23:18.802Z,989.15
2016-06-15T08:24:18.821Z,989.13
2016-06-15T08:25:18.824Z,989.15
2016-06-15T08:26:18.843Z,989.2
2016-06-15T08:27:18.861Z,989.17
2016-06-15T08:28:18.895Z,989.18
2016-06-15T08:29:18.914Z,989.17
2016-06-15T08:30:18.948Z,989.19
2016-06-15T08:31:18.967Z,989.16
2016-06-15T08:32:19.002Z,989.17
2016-06-15T08:33:19.020Z,989.2
2016-06-15T08:34:19.055Z,989.16
2016-06-15T08:35:19.074Z,989.17
2016-06-15T08:36:19.186Z,989.13
2016-06-15T08:37:19.142Z,989.15
2016-06-15T08:38:19.160Z,989.13
2016-06-15T08:39:19.179Z,989.09
2016-06-15T08:40:19.214Z,989.09
2016-06-15T08:41:19.232Z,989.1
2016-06-15T08:42:19.267Z,989.08
2016-06-15T08:43:19.301Z,989.11
2016-06-15T08:44:19.319Z,989.09
2016-06-15T08:45:19.339Z,989.11
2016-06-15T08:46:19.372Z,989.11
2016-06-15T08:47:19.392Z,989.09
2016-06-15T08:48:19.425Z,989.1
2016-06-15T08:49:19.444Z,989.09
2016-06-15T08:50:19.479Z,989.07
2016-06-15T08:51:19.497Z,989.06
2016-06-15T08:52:19.532Z,989.1
2016-06-15T08:53:19.612Z,989.11
2016-06-15T08:54:19.585Z,989.09
2016-06-15T08:55:19.603Z,989.11
2016-06-15T08:56:19.731Z,989.11
2016-06-15T08:57:19.656Z,989.11
2016-06-15T08:58:19.691Z,989.13
2016-06-15T08:59:19.709Z,989.13
2016-06-15T09:00:22.103Z,989.13
2016-06-15T09:01:24.966Z,989.13
2016-06-15T09:02:19.794Z,989.14
2016-06-15T09:03:19.813Z,989.16
2016-06-15T09:04:19.847Z,989.15
2016-06-15T09:05:19.866Z,989.16
2016-06-15T09:06:19.900Z,989.17
2016-06-15T09:07:19.934Z,989.11
2016-06-15T09:08:19.953Z,989.15
2016-06-15T09:09:19.973Z,989.14
2016-06-15T09:10:20.006Z,989.15
2016-06-15T09:11:20.040Z,989.19
2016-06-15T09:12:20.060Z,989.19
2016-06-15T09:13:22.195Z,989.19
2016-06-15T09:14:20.106Z,989.2
2016-06-15T09:15:20.139Z,989.2
2016-06-15T09:16:20.174Z,989.2
2016-06-15T09:17:20.193Z,989.2
2016-06-15T09:18:20.228Z,989.2
2016-06-15T09:19:20.246Z,989.17
2016-06-15T09:20:20.280Z,989.22
2016-06-15T09:21:20.300Z,989.17
2016-06-15T09:22:20.333Z,989.21
2016-06-15T09:23:20.352Z,989.21
2016-06-15T09:24:20.386Z,989.17
2016-06-15T09:25:20.421Z,989.21
2016-06-15T09:26:20.439Z,989.15
2016-06-15T09:27:20.458Z,989.14
2016-06-15T09:28:20.492Z,989.13
2016-06-15T09:29:20.521Z,989.11
2016-06-15T09:30:20.555Z,989.17
2016-06-15T09:31:20.574Z,989.13
2016-06-15T09:32:20.609Z,989.13
2016-06-15T09:33:20.628Z,989.14
2016-06-15T09:34:20.661Z,989.13
2016-06-15T09:35:20.696Z,989.06
2016-06-15T09:36:20.715Z,989.07
2016-06-15T09:37:20.732Z,989.06
2016-06-15T09:38:20.782Z,989.07
2016-06-15T09:39:20.801Z,989.05
2016-06-15T09:40:20.821Z,989.11
2016-06-15T09:41:20.855Z,989.08
2016-06-15T09:42:20.873Z,989.06
2016-06-15T09:43:20.908Z,989.07
2016-06-15T09:44:20.926Z,989.07
2016-06-15T09:45:20.962Z,989.07
2016-06-15T09:46:20.979Z,989.08
2016-06-15T09:47:21.029Z,989.06
2016-06-15T09:48:21.048Z,989.05
2016-06-15T09:49:21.067Z,989.08
2016-06-15T09:50:21.101Z,989.08
2016-06-15T09:51:21.120Z,989.09
2016-06-15T09:52:21.170Z,989.12
2016-06-15T09:53:21.173Z,989.1
2016-06-15T09:54:21.206Z,989.09
2016-06-15T09:55:21.242Z,989.07
2016-06-15T09:56:21.260Z,989.07
2016-06-15T09:57:21.294Z,989.04
2016-06-15T09:58:21.329Z,989.04
2016-06-15T09:59:21.348Z,989.05
2016-06-15T10:00:21.382Z,989.09
2016-06-15T10:01:21.400Z,989.05
2016-06-15T10:02:21.434Z,989.04
2016-06-15T10:03:21.453Z,989.05
2016-06-15T10:04:21.506Z,989.04
2016-06-15T10:05:21.581Z,989.08
2016-06-15T10:06:21.639Z,989.09
2016-06-15T10:07:21.714Z,989.09
2016-06-15T10:08:21.772Z,989.04
2016-06-15T10:09:21.834Z,989.05
2016-06-15T10:10:21.868Z,989.03
2016-06-15T10:11:21.915Z,989.03
2016-06-15T10:12:21.964Z,989.01
2016-06-15T10:13:21.998Z,989.05
2016-06-15T10:14:22.042Z,989.03
2016-06-15T10:15:22.066Z,989.05
2016-06-15T10:16:25.980Z,989.02
2016-06-15T10:17:22.145Z,989.01
2016-06-15T10:18:22.169Z,989
2016-06-15T10:19:22.207Z,988.95
2016-06-15T10:20:22.244Z,988.92
2016-06-15T10:21:22.280Z,988.93
2016-06-15T10:22:22.300Z,988.91
2016-06-15T10:23:22.321Z,988.89
2016-06-15T10:24:22.356Z,988.81
2016-06-15T10:25:22.392Z,988.86
2016-06-15T10:26:22.411Z,988.78
2016-06-15T10:27:22.444Z,988.75
2016-06-15T10:28:22.480Z,988.76
2016-06-15T10:29:22.499Z,988.77
2016-06-15T10:30:22.534Z,988.8
2016-06-15T10:31:22.568Z,988.76
2016-06-15T10:32:22.587Z,988.75
2016-06-15T10:33:22.731Z,988.78
2016-06-15T10:34:22.751Z,988.78
2016-06-15T10:35:22.769Z,988.84
2016-06-15T10:36:24.257Z,988.83
2016-06-15T10:37:24.276Z,988.81
2016-06-15T10:38:23.325Z,988.87
2016-06-15T10:39:23.578Z,988.88
2016-06-15T10:40:27.113Z,988.84
2016-06-15T10:41:30.757Z,988.82
2016-06-15T10:42:33.369Z,988.85
2016-06-15T10:43:23.794Z,988.81
2016-06-15T10:44:23.000Z,988.82
2016-06-15T10:45:30.472Z,988.8
2016-06-15T10:46:29.007Z,988.82
2016-06-15T10:47:24.213Z,988.78
2016-06-15T10:48:49.387Z,988.83
2016-06-15T10:49:46.048Z,988.88
2016-06-15T10:50:35.879Z,988.88
2016-06-15T10:51:38.476Z,988.85
2016-06-15T10:53:10.494Z,988.91
2016-06-15T10:55:12.269Z,988.9
2016-06-15T10:55:57.113Z,988.87
2016-06-15T10:56:57.131Z,988.86
2016-06-15T10:57:57.165Z,988.85
2016-06-15T10:58:57.200Z,988.82
2016-06-15T10:59:57.219Z,988.8
2016-06-15T11:00:57.254Z,988.82
2016-06-15T11:01:57.288Z,988.8
2016-06-15T11:02:57.306Z,988.75
2016-06-15T11:03:57.341Z,988.75
2016-06-15T11:04:57.375Z,988.75
2016-06-15T11:05:57.394Z,988.75
2016-06-15T11:06:58.023Z,988.7
2016-06-15T11:07:57.478Z,988.66
2016-06-15T11:08:57.496Z,988.65
2016-06-15T11:09:57.516Z,988.63
2016-06-15T11:10:57.549Z,988.66
2016-06-15T11:11:57.584Z,988.72
2016-06-15T11:12:57.603Z,988.66
2016-06-15T11:13:57.637Z,988.67
2016-06-15T11:14:57.671Z,988.64
2016-06-15T11:15:57.706Z,988.65
2016-06-15T11:16:57.724Z,988.63
2016-06-15T11:17:57.759Z,988.66
2016-06-15T11:18:57.794Z,988.59
2016-06-15T11:19:57.827Z,988.6
2016-06-15T11:20:57.862Z,988.59
2016-06-15T11:21:57.881Z,988.63
2016-06-15T11:22:58.149Z,988.65
2016-06-15T11:23:57.949Z,988.69
2016-06-15T11:24:57.968Z,988.66
2016-06-15T11:25:58.001Z,988.64
2016-06-15T11:26:58.037Z,988.63
2016-06-15T11:27:58.055Z,988.62
2016-06-15T11:28:58.089Z,988.62
2016-06-15T11:29:58.124Z,988.62
2016-06-15T11:30:58.158Z,988.61
2016-06-15T11:31:58.192Z,988.62
2016-06-15T11:32:58.211Z,988.59
2016-06-15T11:33:58.245Z,988.6
2016-06-15T11:34:58.279Z,988.62
2016-06-15T11:35:58.315Z,988.63
2016-06-15T11:36:58.333Z,988.6
2016-06-15T11:37:58.367Z,988.66
2016-06-15T11:38:58.401Z,988.66
2016-06-15T11:39:58.435Z,988.61
2016-06-15T11:40:58.454Z,988.61
2016-06-15T11:41:58.489Z,988.54
2016-06-15T11:42:58.523Z,988.59
2016-06-15T11:43:58.557Z,988.54
2016-06-15T11:44:58.576Z,988.54
2016-06-15T11:45:58.610Z,988.52
2016-06-15T11:46:58.646Z,988.49
2016-06-15T11:47:58.679Z,988.51
2016-06-15T11:48:58.697Z,988.57
2016-06-15T11:49:58.733Z,988.55
2016-06-15T11:50:58.766Z,988.53
2016-06-15T11:51:58.801Z,988.51
2016-06-15T11:52:58.835Z,988.53
2016-06-15T11:53:58.854Z,988.51
2016-06-15T11:54:58.888Z,988.46
2016-06-15T11:55:58.922Z,988.41
2016-06-15T11:56:58.957Z,988.43
2016-06-15T11:57:58.991Z,988.43
2016-06-15T11:58:59.010Z,988.41
2016-06-15T11:59:59.045Z,988.46
2016-06-15T12:00:59.078Z,988.49
2016-06-15T12:01:59.113Z,988.47
2016-06-15T12:02:59.148Z,988.51
2016-06-15T12:03:59.182Z,988.46
2016-06-15T12:04:59.201Z,988.42
2016-06-15T12:05:59.234Z,988.43
2016-06-15T12:06:59.269Z,988.45
2016-06-15T12:07:59.302Z,988.47
2016-06-15T12:08:59.338Z,988.45
2016-06-15T12:09:59.356Z,988.44
2016-06-15T12:10:59.390Z,988.46
2016-06-15T12:11:59.425Z,988.48
2016-06-15T12:12:59.459Z,988.47
2016-06-15T12:13:59.493Z,988.44
2016-06-15T12:14:59.528Z,988.48
2016-06-15T12:15:59.563Z,988.48
2016-06-15T12:16:59.580Z,988.44
2016-06-15T12:17:59.615Z,988.46
2016-06-15T12:18:59.650Z,988.41
2016-06-15T12:19:59.684Z,988.38
2016-06-15T12:20:59.718Z,988.37
2016-06-15T12:21:59.753Z,988.35
2016-06-15T12:22:59.770Z,988.35
2016-06-15T12:23:59.821Z,988.39
2016-06-15T12:24:59.840Z,988.4
2016-06-15T12:25:59.874Z,988.4
2016-06-15T12:26:59.908Z,988.38
2016-06-15T12:27:59.942Z,988.36
2016-06-15T12:28:59.977Z,988.39
2016-06-15T12:30:00.012Z,988.37
2016-06-15T12:31:00.031Z,988.35
2016-06-15T12:32:00.065Z,988.32
2016-06-15T12:33:00.098Z,988.33